createdAt,value
2023-01-11T00:00:08.523Z,2.20
2023-01-11T00:02:46.247Z,2.22
2023-01-11T00:05:13.082Z,2.40
2023-01-11T00:07:41.027Z,2.55
2023-01-11T00:10:09.109Z,2.95
2023-01-11T00:12:36.002Z,2.83
2023-01-11T00:15:02.814Z,2.58
2023-01-11T00:17:33.617Z,2.90
2023-01-11T00:20:19.209Z,2.40
2023-01-11T00:22:46.326Z,2.50
2023-01-11T00:25:23.293Z,2.45
2023-01-11T00:54:52.542Z,1.77
2023-01-11T00:57:19.815Z,2.33
2023-01-11T00:59:49.407Z,1.98
2023-01-11T01:02:50.903Z,1.58
2023-01-11T01:05:32.786Z,1.85
2023-01-11T01:07:59.569Z,1.63
2023-01-11T01:10:30.037Z,1.77
2023-01-11T01:13:21.350Z,1.70
2023-01-11T01:16:36.368Z,1.70
2023-01-11T01:19:03.851Z,1.80
2023-01-11T01:21:30.670Z,1.38
2023-01-11T01:24:00.898Z,1.60
2023-01-11T01:26:36.864Z,1.60
2023-01-11T01:29:18.838Z,1.40
2023-01-11T01:31:48.180Z,1.65
2023-01-11T01:34:18.767Z,1.33
2023-01-11T01:36:46.942Z,1.35
2023-01-11T01:39:13.837Z,1.48
2023-01-11T01:41:40.625Z,1.50
2023-01-11T01:44:44.834Z,1.60
2023-01-11T01:47:12.683Z,1.38
2023-01-11T01:49:40.838Z,1.42
2023-01-11T01:52:10.401Z,1.20
2023-01-11T01:54:40.726Z,1.25
2023-01-11T01:57:14.135Z,1.27
2023-01-11T01:59:42.028Z,1.60
2023-01-11T02:02:09.076Z,1.13
2023-01-11T02:04:40.236Z,1.10
2023-01-11T02:07:40.619Z,1.20
2023-01-11T02:10:09.602Z,1.40
2023-01-11T02:12:42.130Z,1.35
2023-01-11T02:15:11.024Z,1.27
2023-01-11T02:17:38.018Z,1.20
2023-01-11T02:20:14.169Z,1.30
2023-01-11T02:22:52.558Z,1.40
2023-01-11T02:25:31.992Z,1.40
2023-01-11T02:28:08.956Z,1.30
2023-01-11T02:30:57.724Z,1.30
2023-01-11T02:33:39.436Z,1.10
2023-01-11T02:36:44.725Z,1.00
2023-01-11T02:39:28.882Z,1.20
2023-01-11T02:42:30.118Z,1.38
2023-01-11T02:45:02.526Z,1.10
2023-01-11T02:47:44.815Z,1.23
2023-01-11T02:50:33.192Z,1.30
2023-01-11T02:53:15.223Z,1.00
2023-01-11T02:55:48.449Z,1.40
2023-01-11T02:58:18.195Z,1.20
2023-01-11T03:00:46.650Z,1.40
2023-01-11T03:03:17.976Z,1.40
2023-01-11T03:05:52.778Z,1.35
2023-01-11T03:08:52.160Z,1.40
2023-01-11T03:11:49.483Z,1.30
2023-01-11T03:14:28.793Z,1.30
2023-01-11T03:17:18.365Z,1.27
2023-01-11T03:19:54.269Z,1.45
2023-01-11T03:22:40.103Z,1.50
2023-01-11T03:25:17.957Z,1.50
2023-01-11T03:28:02.824Z,1.67
2023-01-11T03:30:43.161Z,1.35
2023-01-11T03:33:20.640Z,1.70
2023-01-11T03:35:55.868Z,1.58
2023-01-11T03:38:33.189Z,1.70
2023-01-11T03:41:12.184Z,1.48
2023-01-11T03:43:44.063Z,1.80
2023-01-11T03:46:15.523Z,1.80
2023-01-11T03:48:52.443Z,1.80
2023-01-11T03:51:24.965Z,1.70
2023-01-11T03:53:52.919Z,1.90
2023-01-11T03:56:25.300Z,1.77
2023-01-11T03:58:51.997Z,1.73
2023-01-11T04:01:18.819Z,1.67
2023-01-11T04:03:45.434Z,1.50
2023-01-11T04:06:12.613Z,1.70
2023-01-11T04:08:39.267Z,1.60
2023-01-11T04:11:05.975Z,1.63
2023-01-11T04:13:34.126Z,1.52
2023-01-11T04:16:01.099Z,1.42
2023-01-11T04:18:28.303Z,1.52
2023-01-11T04:20:55.171Z,1.52
2023-01-11T04:23:21.984Z,1.45
2023-01-11T04:25:48.906Z,1.50
2023-01-11T04:28:15.730Z,1.30
2023-01-11T04:30:42.368Z,1.35
2023-01-11T04:33:10.936Z,1.45
2023-01-11T04:35:37.584Z,1.63
2023-01-11T04:38:04.344Z,1.80
2023-01-11T04:40:31.176Z,1.73
2023-01-11T04:43:02.292Z,1.73
2023-01-11T04:45:29.977Z,1.80
2023-01-11T04:47:58.058Z,1.70
2023-01-11T04:50:26.020Z,1.80
2023-01-11T04:52:53.123Z,1.90
2023-01-11T04:55:20.997Z,1.83
2023-01-11T04:57:47.781Z,1.98
2023-01-11T05:00:16.030Z,2.00
2023-01-11T05:02:42.809Z,2.15
2023-01-11T05:05:10.664Z,2.25
2023-01-11T05:07:38.981Z,1.92
2023-01-11T05:10:06.415Z,2.30
2023-01-11T05:15:17.082Z,2.30
2023-01-11T05:17:49.995Z,2.15
2023-01-11T05:20:19.449Z,1.90
2023-01-11T05:22:46.224Z,2.00
2023-01-11T05:25:13.188Z,2.00
2023-01-11T05:27:41.294Z,2.20
2023-01-11T05:30:08.819Z,1.98
2023-01-11T05:32:36.798Z,2.38
2023-01-11T05:35:03.882Z,2.53
2023-01-11T05:37:32.684Z,2.40
2023-01-11T05:39:59.535Z,2.25
2023-01-11T05:42:32.136Z,2.58
2023-01-11T05:45:17.439Z,2.75
2023-01-11T05:47:44.280Z,3.15
2023-01-11T05:50:11.283Z,3.00
2023-01-11T05:52:37.908Z,2.55
2023-01-11T05:55:05.068Z,2.92
2023-01-11T05:57:31.757Z,3.20
2023-01-11T05:59:58.601Z,3.05
2023-01-11T06:02:25.511Z,3.15
2023-01-11T06:04:52.204Z,3.08
2023-01-11T06:07:18.801Z,3.47
2023-01-11T06:09:45.563Z,3.80
2023-01-11T06:12:12.465Z,3.30
2023-01-11T06:14:41.263Z,3.78
2023-01-11T06:17:08.133Z,4.38
2023-01-11T06:19:34.836Z,4.47
2023-01-11T06:22:01.756Z,4.20
2023-01-11T06:29:30.837Z,4.35
2023-01-11T06:31:58.436Z,4.43
2023-01-11T06:34:25.179Z,3.88
2023-01-11T06:36:51.998Z,4.10
2023-01-11T06:39:19.306Z,3.92
2023-01-11T06:41:45.962Z,4.38
2023-01-11T06:44:12.802Z,4.70
2023-01-11T06:46:39.679Z,4.40
2023-01-11T06:49:06.352Z,4.03
2023-01-11T06:51:33.175Z,4.63
2023-01-11T06:53:59.776Z,4.55
2023-01-11T06:56:26.481Z,4.03
2023-01-11T06:58:53.242Z,4.43
2023-01-11T07:01:20.205Z,4.10
2023-01-11T07:03:46.971Z,4.25
2023-01-11T07:06:14.241Z,4.60
2023-01-11T07:08:40.841Z,4.60
2023-01-11T07:11:09.099Z,4.18
2023-01-11T07:13:35.949Z,4.72
2023-01-11T07:16:02.583Z,4.50
2023-01-11T07:18:31.754Z,4.53
2023-01-11T07:20:58.483Z,5.13
2023-01-11T07:23:25.156Z,4.20
2023-01-11T07:25:51.892Z,4.60
2023-01-11T07:28:18.641Z,4.35
2023-01-11T07:30:57.280Z,4.68
2023-01-11T07:33:25.312Z,4.55
2023-01-11T07:35:52.037Z,4.03
2023-01-11T07:38:18.690Z,3.95
2023-01-11T07:40:45.599Z,4.47
2023-01-11T07:43:18.328Z,4.47
2023-01-11T07:45:49.816Z,4.50
2023-01-11T07:48:27.102Z,4.13
2023-01-11T07:50:54.939Z,3.95
2023-01-11T07:53:22.244Z,4.03
2023-01-11T07:55:48.868Z,3.85
2023-01-11T07:58:16.256Z,4.00
2023-01-11T08:00:43.441Z,4.38
2023-01-11T08:03:10.606Z,4.22
2023-01-11T08:05:38.038Z,4.10
2023-01-11T08:08:05.324Z,4.00
2023-01-11T08:10:32.033Z,3.95
2023-01-11T08:13:17.761Z,3.80
2023-01-11T08:15:44.602Z,3.70
2023-01-11T08:18:12.500Z,4.07
2023-01-11T08:20:40.123Z,4.00
2023-01-11T08:23:09.041Z,4.15
2023-01-11T08:25:35.775Z,4.25
2023-01-11T08:28:04.822Z,3.75
2023-01-11T08:30:32.304Z,3.40
2023-01-11T08:33:01.928Z,3.40
2023-01-11T08:38:12.689Z,3.85
2023-01-11T08:40:42.439Z,3.80
2023-01-11T08:45:46.762Z,3.30
2023-01-11T08:48:22.706Z,3.63
2023-01-11T08:50:49.669Z,4.40
2023-01-11T08:55:56.647Z,4.03
2023-01-11T08:58:24.640Z,4.10
2023-01-11T09:03:34.140Z,4.18
2023-01-11T09:06:01.216Z,4.55
2023-01-11T09:08:36.687Z,4.25
2023-01-11T09:11:26.284Z,4.60
2023-01-11T09:13:53.032Z,4.43
2023-01-11T09:16:19.842Z,5.18
2023-01-11T09:18:46.558Z,5.05
2023-01-11T09:21:13.234Z,5.25
2023-01-11T09:23:40.032Z,5.05
2023-01-11T09:26:06.767Z,4.65
2023-01-11T09:28:33.531Z,5.47
2023-01-11T09:31:00.275Z,5.28
2023-01-11T09:36:03.193Z,4.53
2023-01-11T09:38:31.019Z,5.82
2023-01-11T09:41:23.356Z,4.32
2023-01-11T09:46:30.040Z,5.70
2023-01-11T09:48:59.761Z,4.93
2023-01-11T09:51:35.888Z,4.43
2023-01-11T09:54:06.054Z,4.40
2023-01-11T09:59:25.856Z,4.38
2023-01-11T10:04:36.923Z,4.63
2023-01-11T10:18:25.676Z,4.78
2023-01-11T10:19:39.508Z,4.80
2023-01-11T10:22:23.600Z,4.18
2023-01-11T10:25:00.558Z,4.13
2023-01-11T10:27:35.772Z,4.60
2023-01-11T10:30:33.478Z,3.92
2023-01-11T10:33:38.136Z,3.88
2023-01-11T10:36:45.065Z,3.88
2023-01-11T10:39:46.745Z,4.63
2023-01-11T10:42:28.878Z,4.28
2023-01-11T10:45:13.214Z,2.72
2023-01-11T10:47:51.306Z,2.92
2023-01-11T10:50:35.062Z,2.70
2023-01-11T10:53:17.128Z,2.97
2023-01-11T10:55:46.611Z,3.30
2023-01-11T10:58:28.464Z,2.78
2023-01-11T11:01:27.228Z,2.97
2023-01-11T11:04:02.905Z,3.15
2023-01-11T11:06:50.001Z,2.60
2023-01-11T11:09:22.946Z,2.47
2023-01-11T11:12:04.404Z,2.97
2023-01-11T11:14:42.292Z,2.70
2023-01-11T11:17:47.376Z,2.05
2023-01-11T11:20:17.310Z,2.10
2023-01-11T11:22:45.209Z,2.70
2023-01-11T11:25:23.292Z,1.88
2023-01-11T11:47:20.748Z,1.85
2023-01-11T11:58:02.665Z,2.42
2023-01-11T12:24:39.646Z,2.28
2023-01-11T12:27:32.445Z,2.47
2023-01-11T12:30:20.816Z,2.90
2023-01-11T12:33:05.626Z,2.40
2023-01-11T12:35:50.106Z,3.17
2023-01-11T12:38:31.634Z,1.95
2023-01-11T12:41:42.828Z,2.35
2023-01-11T12:44:41.642Z,2.83
2023-01-11T12:47:15.720Z,3.42
2023-01-11T12:49:57.511Z,2.90
2023-01-11T12:52:56.785Z,2.25
2023-01-11T12:55:34.389Z,2.88
2023-01-11T12:58:14.144Z,2.78
2023-01-11T13:01:07.266Z,2.47
2023-01-11T13:04:11.890Z,2.45
2023-01-11T13:07:00.101Z,2.97
2023-01-11T13:09:48.655Z,2.25
2023-01-11T13:12:21.208Z,2.20
2023-01-11T13:15:17.431Z,2.33
2023-01-11T13:17:53.142Z,1.95
2023-01-11T13:20:37.134Z,2.70
2023-01-11T13:23:44.474Z,2.38
2023-01-11T13:26:11.259Z,1.70
2023-01-11T13:28:43.664Z,2.05
2023-01-11T13:31:13.918Z,2.08
2023-01-11T13:33:47.812Z,1.73
2023-01-11T13:36:23.703Z,1.70
2023-01-11T13:38:53.985Z,1.67
2023-01-11T13:41:23.939Z,1.83
2023-01-11T13:44:04.387Z,2.20
2023-01-11T13:46:51.799Z,1.63
2023-01-11T13:49:53.872Z,1.92
2023-01-11T13:52:25.279Z,1.80
2023-01-11T13:55:11.202Z,1.67
2023-01-11T13:57:56.013Z,1.50
2023-01-11T14:00:30.687Z,1.95
2023-01-11T14:03:26.786Z,2.00
2023-01-11T14:05:59.516Z,1.70
2023-01-11T14:08:52.234Z,1.98
2023-01-11T14:11:37.949Z,2.00
2023-01-11T14:14:24.086Z,1.88
2023-01-11T14:16:50.675Z,1.85
2023-01-11T14:19:17.258Z,1.77
2023-01-11T14:21:53.970Z,1.50
2023-01-11T14:24:23.180Z,1.92
2023-01-11T14:27:12.544Z,1.50
2023-01-11T14:30:35.238Z,1.65
2023-01-11T14:33:31.242Z,1.90
2023-01-11T14:36:25.822Z,1.73
2023-01-11T14:39:11.455Z,1.73
2023-01-11T14:42:29.282Z,1.90
2023-01-11T14:45:03.329Z,1.63
2023-01-11T14:47:47.704Z,2.00
2023-01-11T14:50:30.064Z,2.30
2023-01-11T14:53:00.302Z,2.30
2023-01-11T14:55:37.453Z,2.05
2023-01-11T14:58:25.239Z,1.90
2023-01-11T15:00:55.130Z,2.08
2023-01-11T15:03:21.727Z,1.88
2023-01-11T15:06:18.936Z,2.53
2023-01-11T15:08:49.094Z,1.98
2023-01-11T15:11:23.321Z,2.10
2023-01-11T15:14:22.325Z,1.75
2023-01-11T15:17:12.422Z,2.22
2023-01-11T15:19:42.335Z,2.83
2023-01-11T15:22:23.565Z,2.03
2023-01-11T15:24:58.384Z,2.20
2023-01-11T15:27:31.169Z,2.35
2023-01-11T15:29:58.375Z,1.88
2023-01-11T15:32:26.297Z,2.38
2023-01-11T15:35:22.414Z,2.22
2023-01-11T15:38:04.692Z,1.77
2023-01-11T15:40:54.471Z,2.38
2023-01-11T15:43:51.153Z,2.22
2023-01-11T15:46:45.629Z,1.90
2023-01-11T15:49:38.038Z,2.35
2023-01-11T15:52:19.824Z,2.30
2023-01-11T15:54:52.466Z,2.40
2023-01-11T15:57:26.266Z,2.05
2023-01-11T16:00:30.745Z,1.95
2023-01-11T16:02:57.427Z,2.72
2023-01-11T16:05:27.886Z,2.60
2023-01-11T16:08:15.442Z,2.30
2023-01-11T16:10:51.903Z,2.65
2023-01-11T16:13:48.940Z,2.30
2023-01-11T16:16:29.282Z,2.35
2023-01-11T16:19:12.781Z,2.42
2023-01-11T16:21:42.339Z,2.88
2023-01-11T16:24:15.360Z,2.67
2023-01-11T16:26:42.396Z,2.53
2023-01-11T16:29:19.693Z,3.03
2023-01-11T16:31:58.594Z,2.53
2023-01-11T16:34:27.199Z,2.90
2023-01-11T16:36:53.851Z,3.13
2023-01-11T16:39:24.421Z,3.45
2023-01-11T16:42:06.372Z,3.28
2023-01-11T16:44:41.235Z,2.33
2023-01-11T16:47:14.285Z,2.50
2023-01-11T16:49:43.385Z,2.20
2023-01-11T16:54:45.590Z,2.50
2023-01-11T17:00:18.959Z,2.47
2023-01-11T17:02:48.933Z,2.25
2023-01-11T17:05:21.824Z,3.03
2023-01-11T17:07:48.558Z,2.92
2023-01-11T17:10:28.090Z,2.55
2023-01-11T17:13:46.512Z,2.50
2023-01-11T17:16:17.460Z,3.25
2023-01-11T17:18:44.371Z,3.03
2023-01-11T17:21:28.701Z,2.88
2023-01-11T17:24:00.438Z,2.55
2023-01-11T17:26:34.618Z,3.00
2023-01-11T17:29:01.624Z,2.35
2023-01-11T17:31:32.077Z,3.50
2023-01-11T17:34:21.746Z,3.22
2023-01-11T17:36:48.911Z,3.15
2023-01-11T17:39:26.706Z,3.15
2023-01-11T17:42:12.189Z,2.70
2023-01-11T17:44:59.208Z,2.50
2023-01-11T17:47:26.557Z,2.42
2023-01-11T17:49:56.037Z,3.17
2023-01-11T17:52:24.850Z,2.55
2023-01-11T17:55:14.753Z,2.75
2023-01-11T17:57:41.526Z,2.70
2023-01-11T18:00:28.929Z,3.17
2023-01-11T18:02:58.010Z,2.65
2023-01-11T18:05:29.724Z,2.22
2023-01-11T18:07:58.235Z,2.92
2023-01-11T18:10:28.531Z,2.85
2023-01-11T18:12:58.047Z,3.03
2023-01-11T18:15:24.713Z,2.53
2023-01-11T18:17:57.135Z,2.03
2023-01-11T18:20:29.551Z,2.80
2023-01-11T18:23:00.029Z,2.38
2023-01-11T18:25:29.641Z,2.50
2023-01-11T18:28:11.601Z,3.40
2023-01-11T18:30:39.585Z,2.70
2023-01-11T18:33:22.705Z,2.13
2023-01-11T18:35:59.448Z,2.10
2023-01-11T18:38:28.780Z,2.30
2023-01-11T18:40:57.299Z,2.25
2023-01-11T18:43:32.132Z,1.80
2023-01-11T18:45:58.817Z,1.90
2023-01-11T18:48:25.483Z,2.25
2023-01-11T18:50:54.608Z,2.08
2023-01-11T18:53:23.717Z,1.80
2023-01-11T18:55:50.398Z,1.85
2023-01-11T18:58:17.171Z,2.20
2023-01-11T19:00:44.051Z,1.92
2023-01-11T19:03:12.816Z,2.20
2023-01-11T19:05:40.292Z,2.40
2023-01-11T19:08:07.828Z,1.80
2023-01-11T19:10:34.914Z,2.20
2023-01-11T19:13:03.448Z,1.70
2023-01-11T19:15:30.237Z,1.52
2023-01-11T19:17:57.050Z,2.28
2023-01-11T19:20:23.868Z,1.60
2023-01-11T19:22:50.553Z,2.40
2023-01-11T19:25:17.556Z,2.38
2023-01-11T19:27:44.636Z,1.55
2023-01-11T19:30:12.520Z,2.28
2023-01-11T19:32:39.201Z,1.40
2023-01-11T19:35:09.391Z,1.70
2023-01-11T19:37:37.767Z,1.40
2023-01-11T19:40:06.584Z,2.10
2023-01-11T19:42:33.269Z,2.22
2023-01-11T19:45:00.003Z,1.92
2023-01-11T19:47:26.798Z,1.92
2023-01-11T19:49:56.564Z,2.00
2023-01-11T19:52:23.252Z,2.22
2023-01-11T19:54:49.924Z,1.83
2023-01-11T19:57:19.232Z,1.85
2023-01-11T19:59:47.069Z,2.10
2023-01-11T20:02:15.946Z,1.42
2023-01-11T20:04:43.073Z,1.55
2023-01-11T20:07:11.734Z,2.17
2023-01-11T20:09:38.865Z,1.98
2023-01-11T20:12:07.552Z,1.90
2023-01-11T20:14:35.060Z,1.63
2023-01-11T20:17:02.210Z,1.70
2023-01-11T20:19:28.996Z,1.90
2023-01-11T20:21:56.041Z,1.50
2023-01-11T20:24:28.462Z,1.52
2023-01-11T20:27:00.024Z,1.90
2023-01-11T20:29:27.114Z,2.47
2023-01-11T20:31:54.033Z,1.75
2023-01-11T20:34:20.909Z,1.90
2023-01-11T20:36:48.936Z,1.27
2023-01-11T20:39:16.013Z,1.65
2023-01-11T20:41:48.899Z,1.83
2023-01-11T20:44:25.135Z,1.70
2023-01-11T20:46:53.189Z,1.80
2023-01-11T20:49:23.327Z,1.65
2023-01-11T20:51:50.366Z,1.90
2023-01-11T20:54:17.526Z,2.55
2023-01-11T20:56:47.049Z,1.80
2023-01-11T20:59:17.516Z,1.52
2023-01-11T21:01:44.232Z,1.80
2023-01-11T21:09:33.047Z,3.15
2023-01-11T21:11:59.716Z,1.88
2023-01-11T21:14:26.388Z,2.50
2023-01-11T21:16:55.423Z,1.73
2023-01-11T21:19:22.887Z,2.17
2023-01-11T21:21:49.918Z,2.45
2023-01-11T21:24:16.964Z,1.50
2023-01-11T21:26:45.762Z,1.70
2023-01-11T21:29:13.499Z,1.55
2023-01-11T21:31:41.060Z,2.00
2023-01-11T21:34:10.199Z,2.13
2023-01-11T21:36:36.916Z,2.10
2023-01-11T21:39:04.627Z,2.50
2023-01-11T21:41:51.818Z,2.20
2023-01-11T21:44:19.844Z,1.77
2023-01-11T21:46:48.480Z,1.80
2023-01-11T21:49:15.381Z,2.28
2023-01-11T21:51:43.035Z,1.77
2023-01-11T21:54:12.073Z,1.85
2023-01-11T21:56:39.136Z,2.75
2023-01-11T21:59:05.906Z,2.47
2023-01-11T22:01:32.613Z,1.90
2023-01-11T22:03:59.782Z,1.70
2023-01-11T22:06:26.559Z,2.17
2023-01-11T22:08:53.386Z,1.60
2023-01-11T22:11:20.034Z,1.98
2023-01-11T22:13:46.752Z,1.90
2023-01-11T22:16:16.222Z,2.03
2023-01-11T22:18:43.987Z,2.05
2023-01-11T22:21:17.286Z,1.98
2023-01-11T22:23:45.385Z,2.08
2023-01-11T22:26:17.243Z,1.75
2023-01-11T22:29:06.289Z,1.98
2023-01-11T22:31:34.009Z,2.17
2023-01-11T22:34:00.896Z,1.90
2023-01-11T22:36:28.999Z,1.83
2023-01-11T22:38:56.100Z,1.92
2023-01-11T22:41:24.435Z,2.13
2023-01-11T22:43:51.599Z,2.05
2023-01-11T22:46:21.349Z,2.33
2023-01-11T22:48:48.918Z,3.13
2023-01-11T22:51:20.078Z,2.63
2023-01-11T22:53:48.764Z,2.55
2023-01-11T22:56:21.449Z,2.75
2023-01-11T22:58:50.539Z,2.30
2023-01-11T23:01:28.216Z,2.08
2023-01-11T23:03:56.311Z,2.55
2023-01-11T23:06:31.981Z,2.50
2023-01-11T23:08:59.266Z,2.10
2023-01-11T23:11:47.496Z,1.92
2023-01-11T23:14:16.715Z,2.03
2023-01-11T23:16:44.811Z,2.38
2023-01-11T23:19:13.189Z,2.55
2023-01-11T23:21:42.026Z,2.78
2023-01-11T23:24:10.499Z,1.90
2023-01-11T23:26:37.668Z,1.88
2023-01-11T23:29:05.257Z,1.80
2023-01-11T23:31:32.211Z,2.22
2023-01-11T23:34:00.950Z,2.03
2023-01-11T23:36:31.555Z,1.83
2023-01-11T23:38:58.717Z,1.65
2023-01-11T23:41:44.256Z,2.15
2023-01-11T23:44:14.262Z,2.57
2023-01-11T23:47:00.337Z,1.60
2023-01-11T23:49:27.493Z,1.90
2023-01-11T23:51:55.158Z,2.08
2023-01-11T23:54:22.744Z,1.58
2023-01-11T23:56:49.367Z,1.55
2023-01-11T23:59:15.995Z,2.28
